sensor_id;sensor_type;location;lat;lon;timestamp;temperature;humidity
11152;DHT22;5630;49.342;10.802;2023-07-13T00:02:15;21.40;99.90
11152;DHT22;5630;49.342;10.802;2023-07-13T00:04:40;21.40;99.90
11152;DHT22;5630;49.342;10.802;2023-07-13T00:07:07;21.40;99.90
11152;DHT22;5630;49.342;10.802;2023-07-13T00:09:33;21.40;99.90
11152;DHT22;5630;49.342;10.802;2023-07-13T00:11:58;21.40;99.90
11152;DHT22;5630;49.342;10.802;2023-07-13T00:14:25;21.40;99.90
11152;DHT22;5630;49.342;10.802;2023-07-13T00:16:51;21.30;99.90
11152;DHT22;5630;49.342;10.802;2023-07-13T00:19:17;21.30;99.90
11152;DHT22;5630;49.342;10.802;2023-07-13T00:21:42;21.30;99.90
11152;DHT22;5630;49.342;10.802;2023-07-13T00:24:11;21.20;99.90
11152;DHT22;5630;49.342;10.802;2023-07-13T00:26:41;21.20;99.90
11152;DHT22;5630;49.342;10.802;2023-07-13T00:29:10;21.30;99.90
11152;DHT22;5630;49.342;10.802;2023-07-13T00:31:36;21.20;99.90
11152;DHT22;5630;49.342;10.802;2023-07-13T00:34:02;21.20;99.90
11152;DHT22;5630;49.342;10.802;2023-07-13T00:36:30;21.20;99.90
11152;DHT22;5630;49.342;10.802;2023-07-13T00:38:55;21.10;99.90
11152;DHT22;5630;49.342;10.802;2023-07-13T00:41:21;21.10;99.90
11152;DHT22;5630;49.342;10.802;2023-07-13T00:43:47;21.00;99.90
11152;DHT22;5630;49.342;10.802;2023-07-13T00:48:46;21.00;99.90
11152;DHT22;5630;49.342;10.802;2023-07-13T00:51:12;21.00;99.90
11152;DHT22;5630;49.342;10.802;2023-07-13T00:53:39;20.90;99.90
11152;DHT22;5630;49.342;10.802;2023-07-13T00:56:05;20.90;99.90
11152;DHT22;5630;49.342;10.802;2023-07-13T00:58:32;20.90;99.90
11152;DHT22;5630;49.342;10.802;2023-07-13T01:00:58;20.90;99.90
11152;DHT22;5630;49.342;10.802;2023-07-13T01:03:23;20.80;99.90
11152;DHT22;5630;49.342;10.802;2023-07-13T01:05:49;20.80;99.90
11152;DHT22;5630;49.342;10.802;2023-07-13T01:08:15;20.70;99.90
11152;DHT22;5630;49.342;10.802;2023-07-13T01:10:50;20.70;99.90
11152;DHT22;5630;49.342;10.802;2023-07-13T01:13:15;20.70;99.90
11152;DHT22;5630;49.342;10.802;2023-07-13T01:15:45;20.70;99.90
11152;DHT22;5630;49.342;10.802;2023-07-13T01:18:18;20.60;99.90
11152;DHT22;5630;49.342;10.802;2023-07-13T01:20:53;20.60;99.90
11152;DHT22;5630;49.342;10.802;2023-07-13T01:23:19;20.50;99.90
11152;DHT22;5630;49.342;10.802;2023-07-13T01:25:45;20.50;99.90
11152;DHT22;5630;49.342;10.802;2023-07-13T01:28:11;20.50;99.90
11152;DHT22;5630;49.342;10.802;2023-07-13T01:33:06;20.40;99.90
11152;DHT22;5630;49.342;10.802;2023-07-13T01:35:33;20.30;99.90
11152;DHT22;5630;49.342;10.802;2023-07-13T01:37:58;20.30;99.90
11152;DHT22;5630;49.342;10.802;2023-07-13T01:40:25;20.20;99.90
11152;DHT22;5630;49.342;10.802;2023-07-13T01:42:51;20.10;99.90
11152;DHT22;5630;49.342;10.802;2023-07-13T01:45:16;20.10;99.90
11152;DHT22;5630;49.342;10.802;2023-07-13T01:47:42;20.10;99.90
11152;DHT22;5630;49.342;10.802;2023-07-13T01:50:08;20.00;99.90
11152;DHT22;5630;49.342;10.802;2023-07-13T01:52:34;20.00;99.90
11152;DHT22;5630;49.342;10.802;2023-07-13T01:54:59;19.90;99.90
11152;DHT22;5630;49.342;10.802;2023-07-13T01:57:25;19.90;99.90
11152;DHT22;5630;49.342;10.802;2023-07-13T01:59:50;19.90;99.90
11152;DHT22;5630;49.342;10.802;2023-07-13T02:02:16;19.90;99.90
11152;DHT22;5630;49.342;10.802;2023-07-13T02:04:41;19.80;99.90
11152;DHT22;5630;49.342;10.802;2023-07-13T02:07:09;19.80;99.90
11152;DHT22;5630;49.342;10.802;2023-07-13T02:09:34;19.80;99.90
11152;DHT22;5630;49.342;10.802;2023-07-13T02:12:00;19.70;99.90
11152;DHT22;5630;49.342;10.802;2023-07-13T02:16:52;19.70;99.90
11152;DHT22;5630;49.342;10.802;2023-07-13T02:19:17;19.60;99.90
11152;DHT22;5630;49.342;10.802;2023-07-13T02:21:43;19.60;99.90
11152;DHT22;5630;49.342;10.802;2023-07-13T02:24:08;19.50;99.90
11152;DHT22;5630;49.342;10.802;2023-07-13T02:26:34;19.50;99.90
11152;DHT22;5630;49.342;10.802;2023-07-13T02:29:00;19.50;99.90
11152;DHT22;5630;49.342;10.802;2023-07-13T02:31:25;19.30;99.90
11152;DHT22;5630;49.342;10.802;2023-07-13T02:33:51;19.40;99.90
11152;DHT22;5630;49.342;10.802;2023-07-13T02:36:23;19.30;99.90
11152;DHT22;5630;49.342;10.802;2023-07-13T02:38:50;19.30;99.90
11152;DHT22;5630;49.342;10.802;2023-07-13T02:41:15;19.20;99.90
11152;DHT22;5630;49.342;10.802;2023-07-13T02:43:41;19.20;99.90
11152;DHT22;5630;49.342;10.802;2023-07-13T02:46:06;19.10;99.90
11152;DHT22;5630;49.342;10.802;2023-07-13T02:48:33;19.10;99.90
11152;DHT22;5630;49.342;10.802;2023-07-13T02:50:59;19.00;99.90
11152;DHT22;5630;49.342;10.802;2023-07-13T02:53:25;19.00;99.90
11152;DHT22;5630;49.342;10.802;2023-07-13T02:55:50;18.90;99.90
11152;DHT22;5630;49.342;10.802;2023-07-13T02:58:16;18.90;99.90
11152;DHT22;5630;49.342;10.802;2023-07-13T03:00:43;18.90;99.90
11152;DHT22;5630;49.342;10.802;2023-07-13T03:03:09;18.80;99.90
11152;DHT22;5630;49.342;10.802;2023-07-13T03:05:36;18.80;99.90
11152;DHT22;5630;49.342;10.802;2023-07-13T03:08:02;18.80;99.90
11152;DHT22;5630;49.342;10.802;2023-07-13T03:10:29;18.90;99.90
11152;DHT22;5630;49.342;10.802;2023-07-13T03:12:55;18.80;99.90
11152;DHT22;5630;49.342;10.802;2023-07-13T03:15:20;18.80;99.90
11152;DHT22;5630;49.342;10.802;2023-07-13T03:17:46;18.80;99.90
11152;DHT22;5630;49.342;10.802;2023-07-13T03:20:12;18.80;99.90
11152;DHT22;5630;49.342;10.802;2023-07-13T03:22:37;18.80;99.90
11152;DHT22;5630;49.342;10.802;2023-07-13T03:25:04;18.80;99.90
11152;DHT22;5630;49.342;10.802;2023-07-13T03:27:29;18.80;99.90
11152;DHT22;5630;49.342;10.802;2023-07-13T03:29:55;18.90;99.90
11152;DHT22;5630;49.342;10.802;2023-07-13T03:32:20;18.80;99.90
11152;DHT22;5630;49.342;10.802;2023-07-13T03:34:46;18.80;99.90
11152;DHT22;5630;49.342;10.802;2023-07-13T03:37:11;18.90;99.90
11152;DHT22;5630;49.342;10.802;2023-07-13T03:39:37;18.90;99.90
11152;DHT22;5630;49.342;10.802;2023-07-13T03:42:03;19.10;99.90
11152;DHT22;5630;49.342;10.802;2023-07-13T03:44:28;19.20;99.90
11152;DHT22;5630;49.342;10.802;2023-07-13T03:46:54;19.20;99.90
11152;DHT22;5630;49.342;10.802;2023-07-13T03:49:19;19.30;99.90
11152;DHT22;5630;49.342;10.802;2023-07-13T03:51:45;19.40;99.90
11152;DHT22;5630;49.342;10.802;2023-07-13T03:54:10;19.40;99.90
11152;DHT22;5630;49.342;10.802;2023-07-13T03:56:36;19.40;99.90
11152;DHT22;5630;49.342;10.802;2023-07-13T03:59:01;19.40;99.90
11152;DHT22;5630;49.342;10.802;2023-07-13T04:01:27;19.40;99.90
11152;DHT22;5630;49.342;10.802;2023-07-13T04:03:53;19.30;99.90
11152;DHT22;5630;49.342;10.802;2023-07-13T04:06:29;19.30;99.90
11152;DHT22;5630;49.342;10.802;2023-07-13T04:08:58;19.30;99.90
11152;DHT22;5630;49.342;10.802;2023-07-13T04:11:26;19.20;99.90
11152;DHT22;5630;49.342;10.802;2023-07-13T04:13:52;19.30;99.90
11152;DHT22;5630;49.342;10.802;2023-07-13T04:16:19;19.30;99.90
11152;DHT22;5630;49.342;10.802;2023-07-13T04:18:45;19.20;99.90
11152;DHT22;5630;49.342;10.802;2023-07-13T04:21:11;19.20;99.90
11152;DHT22;5630;49.342;10.802;2023-07-13T04:23:38;19.10;99.90
11152;DHT22;5630;49.342;10.802;2023-07-13T04:26:03;19.10;99.90
11152;DHT22;5630;49.342;10.802;2023-07-13T04:28:29;19.10;99.90
11152;DHT22;5630;49.342;10.802;2023-07-13T04:30:56;19.10;99.90
11152;DHT22;5630;49.342;10.802;2023-07-13T04:33:21;19.10;99.90
11152;DHT22;5630;49.342;10.802;2023-07-13T04:35:51;19.00;99.90
11152;DHT22;5630;49.342;10.802;2023-07-13T04:38:22;19.10;99.90
11152;DHT22;5630;49.342;10.802;2023-07-13T04:40:48;19.10;99.90
11152;DHT22;5630;49.342;10.802;2023-07-13T04:43:14;19.20;99.90
11152;DHT22;5630;49.342;10.802;2023-07-13T04:45:40;19.30;99.90
11152;DHT22;5630;49.342;10.802;2023-07-13T04:48:06;19.10;99.90
11152;DHT22;5630;49.342;10.802;2023-07-13T04:50:31;19.20;99.90
11152;DHT22;5630;49.342;10.802;2023-07-13T04:52:57;19.30;99.90
11152;DHT22;5630;49.342;10.802;2023-07-13T04:55:23;19.30;99.90
11152;DHT22;5630;49.342;10.802;2023-07-13T04:57:49;19.20;99.90
11152;DHT22;5630;49.342;10.802;2023-07-13T05:00:15;19.30;99.90
11152;DHT22;5630;49.342;10.802;2023-07-13T05:02:44;19.30;99.90
11152;DHT22;5630;49.342;10.802;2023-07-13T05:05:11;19.20;99.90
11152;DHT22;5630;49.342;10.802;2023-07-13T05:07:36;19.20;99.90
11152;DHT22;5630;49.342;10.802;2023-07-13T05:10:03;19.30;99.90
11152;DHT22;5630;49.342;10.802;2023-07-13T05:12:29;19.30;99.90
11152;DHT22;5630;49.342;10.802;2023-07-13T05:14:55;19.30;99.90
11152;DHT22;5630;49.342;10.802;2023-07-13T05:17:20;19.30;99.90
11152;DHT22;5630;49.342;10.802;2023-07-13T05:19:46;19.40;99.90
11152;DHT22;5630;49.342;10.802;2023-07-13T05:22:12;19.40;99.90
11152;DHT22;5630;49.342;10.802;2023-07-13T05:24:38;19.40;99.90
11152;DHT22;5630;49.342;10.802;2023-07-13T05:27:03;19.50;99.90
11152;DHT22;5630;49.342;10.802;2023-07-13T05:29:29;19.50;99.90
11152;DHT22;5630;49.342;10.802;2023-07-13T05:31:55;19.50;99.90
11152;DHT22;5630;49.342;10.802;2023-07-13T05:34:20;19.60;99.90
11152;DHT22;5630;49.342;10.802;2023-07-13T05:36:46;19.70;99.90
11152;DHT22;5630;49.342;10.802;2023-07-13T05:39:11;19.80;99.90
11152;DHT22;5630;49.342;10.802;2023-07-13T05:41:37;19.80;99.90
11152;DHT22;5630;49.342;10.802;2023-07-13T05:44:03;19.80;99.90
11152;DHT22;5630;49.342;10.802;2023-07-13T05:46:29;19.90;99.90
11152;DHT22;5630;49.342;10.802;2023-07-13T05:48:55;20.00;99.90
11152;DHT22;5630;49.342;10.802;2023-07-13T05:51:21;20.10;99.90
11152;DHT22;5630;49.342;10.802;2023-07-13T05:53:46;20.00;99.90
11152;DHT22;5630;49.342;10.802;2023-07-13T05:56:12;20.00;99.90
11152;DHT22;5630;49.342;10.802;2023-07-13T05:58:37;20.00;99.90
11152;DHT22;5630;49.342;10.802;2023-07-13T06:01:06;20.00;99.90
11152;DHT22;5630;49.342;10.802;2023-07-13T06:03:32;20.00;99.90
11152;DHT22;5630;49.342;10.802;2023-07-13T06:05:58;20.10;99.90
11152;DHT22;5630;49.342;10.802;2023-07-13T06:08:26;20.10;99.90
11152;DHT22;5630;49.342;10.802;2023-07-13T06:10:51;20.10;99.90
11152;DHT22;5630;49.342;10.802;2023-07-13T06:13:17;20.10;99.90
11152;DHT22;5630;49.342;10.802;2023-07-13T06:15:50;20.20;99.90
11152;DHT22;5630;49.342;10.802;2023-07-13T06:18:16;20.20;99.90
11152;DHT22;5630;49.342;10.802;2023-07-13T06:20:42;20.30;99.90
11152;DHT22;5630;49.342;10.802;2023-07-13T06:23:07;20.40;99.90
11152;DHT22;5630;49.342;10.802;2023-07-13T06:25:33;20.40;99.90
11152;DHT22;5630;49.342;10.802;2023-07-13T06:27:59;20.50;99.90
11152;DHT22;5630;49.342;10.802;2023-07-13T06:30:24;20.60;99.90
11152;DHT22;5630;49.342;10.802;2023-07-13T06:32:50;20.60;99.90
11152;DHT22;5630;49.342;10.802;2023-07-13T06:35:15;20.60;99.90
11152;DHT22;5630;49.342;10.802;2023-07-13T06:37:41;20.50;99.90
11152;DHT22;5630;49.342;10.802;2023-07-13T06:40:07;20.50;99.90
11152;DHT22;5630;49.342;10.802;2023-07-13T06:42:33;20.60;99.90
11152;DHT22;5630;49.342;10.802;2023-07-13T06:44:59;20.60;99.90
11152;DHT22;5630;49.342;10.802;2023-07-13T06:47:24;20.50;99.90
11152;DHT22;5630;49.342;10.802;2023-07-13T06:49:50;20.40;99.90
11152;DHT22;5630;49.342;10.802;2023-07-13T06:52:15;20.40;99.90
11152;DHT22;5630;49.342;10.802;2023-07-13T06:54:41;20.50;99.90
11152;DHT22;5630;49.342;10.802;2023-07-13T06:57:06;20.60;99.90
11152;DHT22;5630;49.342;10.802;2023-07-13T06:59:32;20.70;99.90
11152;DHT22;5630;49.342;10.802;2023-07-13T07:01:58;20.60;99.90
11152;DHT22;5630;49.342;10.802;2023-07-13T07:04:23;20.90;99.90
11152;DHT22;5630;49.342;10.802;2023-07-13T07:06:49;21.00;99.90
11152;DHT22;5630;49.342;10.802;2023-07-13T07:09:14;21.10;99.90
11152;DHT22;5630;49.342;10.802;2023-07-13T07:11:42;20.90;99.90
11152;DHT22;5630;49.342;10.802;2023-07-13T07:14:08;20.70;99.90
11152;DHT22;5630;49.342;10.802;2023-07-13T07:16:33;20.60;99.90
11152;DHT22;5630;49.342;10.802;2023-07-13T07:18:59;20.60;99.90
11152;DHT22;5630;49.342;10.802;2023-07-13T07:21:24;20.60;99.90
11152;DHT22;5630;49.342;10.802;2023-07-13T07:23:51;20.90;99.90
11152;DHT22;5630;49.342;10.802;2023-07-13T07:26:18;21.10;99.90
11152;DHT22;5630;49.342;10.802;2023-07-13T07:28:44;21.20;99.90
11152;DHT22;5630;49.342;10.802;2023-07-13T07:31:10;21.20;99.90
11152;DHT22;5630;49.342;10.802;2023-07-13T07:33:36;21.00;99.90
11152;DHT22;5630;49.342;10.802;2023-07-13T07:36:02;20.90;99.90
11152;DHT22;5630;49.342;10.802;2023-07-13T07:38:28;21.00;99.90
11152;DHT22;5630;49.342;10.802;2023-07-13T07:40:54;21.00;99.90
11152;DHT22;5630;49.342;10.802;2023-07-13T07:43:19;21.00;99.90
11152;DHT22;5630;49.342;10.802;2023-07-13T07:45:45;21.00;99.90
11152;DHT22;5630;49.342;10.802;2023-07-13T07:48:11;20.90;99.90
11152;DHT22;5630;49.342;10.802;2023-07-13T07:50:37;21.10;99.90
11152;DHT22;5630;49.342;10.802;2023-07-13T07:53:05;21.30;99.90
11152;DHT22;5630;49.342;10.802;2023-07-13T07:55:34;21.70;99.90
11152;DHT22;5630;49.342;10.802;2023-07-13T07:58:01;22.10;99.90
11152;DHT22;5630;49.342;10.802;2023-07-13T08:00:26;22.30;99.90
11152;DHT22;5630;49.342;10.802;2023-07-13T08:02:54;22.70;99.90
11152;DHT22;5630;49.342;10.802;2023-07-13T08:05:20;22.90;99.90
11152;DHT22;5630;49.342;10.802;2023-07-13T08:07:45;23.20;99.90
11152;DHT22;5630;49.342;10.802;2023-07-13T08:10:11;23.40;99.90
11152;DHT22;5630;49.342;10.802;2023-07-13T08:12:38;23.50;99.90
11152;DHT22;5630;49.342;10.802;2023-07-13T08:15:04;24.00;99.90
11152;DHT22;5630;49.342;10.802;2023-07-13T08:17:30;24.00;99.90
11152;DHT22;5630;49.342;10.802;2023-07-13T08:19:56;24.10;99.90
11152;DHT22;5630;49.342;10.802;2023-07-13T08:22:21;24.20;99.70
11152;DHT22;5630;49.342;10.802;2023-07-13T08:24:47;24.30;99.90
11152;DHT22;5630;49.342;10.802;2023-07-13T08:27:21;24.20;99.00
11152;DHT22;5630;49.342;10.802;2023-07-13T08:29:48;24.40;99.40
11152;DHT22;5630;49.342;10.802;2023-07-13T08:32:13;24.60;99.70
11152;DHT22;5630;49.342;10.802;2023-07-13T08:34:39;24.60;98.90
11152;DHT22;5630;49.342;10.802;2023-07-13T08:37:05;24.60;99.00
11152;DHT22;5630;49.342;10.802;2023-07-13T08:39:31;24.80;98.80
11152;DHT22;5630;49.342;10.802;2023-07-13T08:42:02;25.00;98.50
11152;DHT22;5630;49.342;10.802;2023-07-13T08:44:51;24.70;96.50
11152;DHT22;5630;49.342;10.802;2023-07-13T08:47:24;24.70;96.00
11152;DHT22;5630;49.342;10.802;2023-07-13T08:49:49;24.90;96.10
11152;DHT22;5630;49.342;10.802;2023-07-13T08:52:40;24.80;95.60
11152;DHT22;5630;49.342;10.802;2023-07-13T08:55:20;25.10;95.80
11152;DHT22;5630;49.342;10.802;2023-07-13T08:57:50;25.40;96.00
11152;DHT22;5630;49.342;10.802;2023-07-13T09:00:18;25.60;96.10
11152;DHT22;5630;49.342;10.802;2023-07-13T09:02:56;25.10;96.30
11152;DHT22;5630;49.342;10.802;2023-07-13T09:05:36;25.10;95.80
11152;DHT22;5630;49.342;10.802;2023-07-13T09:08:31;25.10;95.10
11152;DHT22;5630;49.342;10.802;2023-07-13T09:11:54;25.10;95.50
11152;DHT22;5630;49.342;10.802;2023-07-13T09:14:28;25.30;94.70
11152;DHT22;5630;49.342;10.802;2023-07-13T09:16:59;25.30;94.40
11152;DHT22;5630;49.342;10.802;2023-07-13T09:19:28;25.20;94.60
11152;DHT22;5630;49.342;10.802;2023-07-13T09:21:56;25.30;95.10
11152;DHT22;5630;49.342;10.802;2023-07-13T09:26:57;25.50;93.80
11152;DHT22;5630;49.342;10.802;2023-07-13T09:29:29;25.60;93.60
11152;DHT22;5630;49.342;10.802;2023-07-13T09:32:02;25.70;93.80
11152;DHT22;5630;49.342;10.802;2023-07-13T09:34:30;25.90;93.70
11152;DHT22;5630;49.342;10.802;2023-07-13T09:36:56;26.10;93.40
11152;DHT22;5630;49.342;10.802;2023-07-13T09:39:38;26.00;92.80
11152;DHT22;5630;49.342;10.802;2023-07-13T09:42:16;26.00;92.50
11152;DHT22;5630;49.342;10.802;2023-07-13T09:47:28;26.20;92.70
11152;DHT22;5630;49.342;10.802;2023-07-13T09:49:56;26.50;93.90
11152;DHT22;5630;49.342;10.802;2023-07-13T09:52:24;26.60;92.40
11152;DHT22;5630;49.342;10.802;2023-07-13T09:54:50;26.50;92.00
11152;DHT22;5630;49.342;10.802;2023-07-13T09:57:18;26.40;93.20
11152;DHT22;5630;49.342;10.802;2023-07-13T09:59:46;26.10;91.80
11152;DHT22;5630;49.342;10.802;2023-07-13T10:02:32;26.10;92.70
11152;DHT22;5630;49.342;10.802;2023-07-13T10:05:13;26.20;91.90
11152;DHT22;5630;49.342;10.802;2023-07-13T10:07:43;26.30;92.70
11152;DHT22;5630;49.342;10.802;2023-07-13T10:10:20;26.60;92.90
11152;DHT22;5630;49.342;10.802;2023-07-13T10:12:47;26.80;93.10
11152;DHT22;5630;49.342;10.802;2023-07-13T10:15:16;26.90;92.80
11152;DHT22;5630;49.342;10.802;2023-07-13T10:17:43;27.00;91.60
11152;DHT22;5630;49.342;10.802;2023-07-13T10:20:10;26.90;91.60
11152;DHT22;5630;49.342;10.802;2023-07-13T10:22:59;26.80;91.40
11152;DHT22;5630;49.342;10.802;2023-07-13T10:25:34;26.20;91.50
11152;DHT22;5630;49.342;10.802;2023-07-13T10:28:25;26.20;92.10
11152;DHT22;5630;49.342;10.802;2023-07-13T10:30:53;26.50;91.60
11152;DHT22;5630;49.342;10.802;2023-07-13T10:33:21;26.80;91.50
11152;DHT22;5630;49.342;10.802;2023-07-13T10:35:48;27.00;91.40
11152;DHT22;5630;49.342;10.802;2023-07-13T10:38:21;27.10;91.70
11152;DHT22;5630;49.342;10.802;2023-07-13T10:40:59;27.00;91.50
11152;DHT22;5630;49.342;10.802;2023-07-13T10:43:31;27.00;91.10
11152;DHT22;5630;49.342;10.802;2023-07-13T10:45:59;27.00;91.10
11152;DHT22;5630;49.342;10.802;2023-07-13T10:48:26;27.00;91.00
11152;DHT22;5630;49.342;10.802;2023-07-13T10:50:53;26.70;92.10
11152;DHT22;5630;49.342;10.802;2023-07-13T10:53:20;26.80;91.10
11152;DHT22;5630;49.342;10.802;2023-07-13T11:03:22;26.50;91.50
11152;DHT22;5630;49.342;10.802;2023-07-13T11:05:50;26.80;91.50
11152;DHT22;5630;49.342;10.802;2023-07-13T11:08:32;26.80;91.40
11152;DHT22;5630;49.342;10.802;2023-07-13T11:10:58;26.70;90.80
11152;DHT22;5630;49.342;10.802;2023-07-13T11:18:50;27.60;89.30
11152;DHT22;5630;49.342;10.802;2023-07-13T11:21:19;27.70;88.30
11152;DHT22;5630;49.342;10.802;2023-07-13T11:23:53;27.50;87.80
11152;DHT22;5630;49.342;10.802;2023-07-13T11:31:42;27.30;90.80
11152;DHT22;5630;49.342;10.802;2023-07-13T11:34:15;27.70;91.20
11152;DHT22;5630;49.342;10.802;2023-07-13T11:36:43;27.90;90.20
11152;DHT22;5630;49.342;10.802;2023-07-13T11:39:18;28.00;90.10
11152;DHT22;5630;49.342;10.802;2023-07-13T11:41:53;27.60;86.80
11152;DHT22;5630;49.342;10.802;2023-07-13T11:44:24;27.10;89.90
11152;DHT22;5630;49.342;10.802;2023-07-13T11:46:53;26.80;90.60
11152;DHT22;5630;49.342;10.802;2023-07-13T11:49:21;26.60;90.90
11152;DHT22;5630;49.342;10.802;2023-07-13T11:51:47;26.90;91.00
11152;DHT22;5630;49.342;10.802;2023-07-13T11:54:31;27.40;90.70
11152;DHT22;5630;49.342;10.802;2023-07-13T11:57:00;27.50;88.60
11152;DHT22;5630;49.342;10.802;2023-07-13T11:59:29;27.00;89.00
11152;DHT22;5630;49.342;10.802;2023-07-13T12:01:55;26.80;90.50
11152;DHT22;5630;49.342;10.802;2023-07-13T12:04:27;26.90;91.00
11152;DHT22;5630;49.342;10.802;2023-07-13T12:07:14;26.80;89.70
11152;DHT22;5630;49.342;10.802;2023-07-13T12:09:40;26.70;91.30
11152;DHT22;5630;49.342;10.802;2023-07-13T12:12:11;26.50;91.00
11152;DHT22;5630;49.342;10.802;2023-07-13T12:14:38;26.30;90.70
11152;DHT22;5630;49.342;10.802;2023-07-13T12:17:10;26.20;91.10
11152;DHT22;5630;49.342;10.802;2023-07-13T12:19:36;26.20;90.40
11152;DHT22;5630;49.342;10.802;2023-07-13T12:22:02;26.30;90.60
11152;DHT22;5630;49.342;10.802;2023-07-13T12:24:28;26.30;91.00
11152;DHT22;5630;49.342;10.802;2023-07-13T12:27:04;26.50;91.20
11152;DHT22;5630;49.342;10.802;2023-07-13T12:29:32;26.30;91.40
11152;DHT22;5630;49.342;10.802;2023-07-13T12:31:58;26.40;91.90
11152;DHT22;5630;49.342;10.802;2023-07-13T12:34:26;26.30;90.70
11152;DHT22;5630;49.342;10.802;2023-07-13T12:41:49;26.50;90.40
11152;DHT22;5630;49.342;10.802;2023-07-13T12:44:18;26.50;91.20
11152;DHT22;5630;49.342;10.802;2023-07-13T12:46:53;26.50;91.40
11152;DHT22;5630;49.342;10.802;2023-07-13T12:49:23;26.30;90.30
11152;DHT22;5630;49.342;10.802;2023-07-13T12:51:57;26.20;90.80
11152;DHT22;5630;49.342;10.802;2023-07-13T12:54:24;26.00;91.00
11152;DHT22;5630;49.342;10.802;2023-07-13T12:56:51;26.00;91.10
11152;DHT22;5630;49.342;10.802;2023-07-13T12:59:20;26.30;91.60
11152;DHT22;5630;49.342;10.802;2023-07-13T13:01:46;26.70;91.90
11152;DHT22;5630;49.342;10.802;2023-07-13T13:04:12;27.10;92.00
11152;DHT22;5630;49.342;10.802;2023-07-13T13:06:39;27.30;90.60
11152;DHT22;5630;49.342;10.802;2023-07-13T13:09:13;27.40;89.40
11152;DHT22;5630;49.342;10.802;2023-07-13T13:11:39;27.60;90.40
11152;DHT22;5630;49.342;10.802;2023-07-13T13:14:05;28.00;89.30
11152;DHT22;5630;49.342;10.802;2023-07-13T13:16:34;27.90;89.00
11152;DHT22;5630;49.342;10.802;2023-07-13T13:21:35;27.70;87.60
11152;DHT22;5630;49.342;10.802;2023-07-13T13:24:01;27.40;88.70
11152;DHT22;5630;49.342;10.802;2023-07-13T13:26:26;27.10;89.90
11152;DHT22;5630;49.342;10.802;2023-07-13T13:28:52;26.60;90.50
11152;DHT22;5630;49.342;10.802;2023-07-13T13:31:18;26.30;90.50
11152;DHT22;5630;49.342;10.802;2023-07-13T13:33:45;26.20;90.20
11152;DHT22;5630;49.342;10.802;2023-07-13T13:36:22;26.00;90.50
11152;DHT22;5630;49.342;10.802;2023-07-13T13:38:49;26.10;91.10
11152;DHT22;5630;49.342;10.802;2023-07-13T13:41:15;26.50;90.70
11152;DHT22;5630;49.342;10.802;2023-07-13T13:43:42;26.90;90.80
11152;DHT22;5630;49.342;10.802;2023-07-13T13:46:25;27.20;90.00
11152;DHT22;5630;49.342;10.802;2023-07-13T13:48:50;27.40;89.30
11152;DHT22;5630;49.342;10.802;2023-07-13T13:51:21;27.20;87.10
11152;DHT22;5630;49.342;10.802;2023-07-13T13:53:47;26.80;87.30
11152;DHT22;5630;49.342;10.802;2023-07-13T13:56:14;26.80;86.70
11152;DHT22;5630;49.342;10.802;2023-07-13T13:58:40;26.40;86.70
11152;DHT22;5630;49.342;10.802;2023-07-13T14:01:12;26.30;89.30
11152;DHT22;5630;49.342;10.802;2023-07-13T14:03:39;26.50;89.60
11152;DHT22;5630;49.342;10.802;2023-07-13T14:06:05;26.80;90.40
11152;DHT22;5630;49.342;10.802;2023-07-13T14:08:31;27.00;87.30
11152;DHT22;5630;49.342;10.802;2023-07-13T14:10:57;27.20;88.10
11152;DHT22;5630;49.342;10.802;2023-07-13T14:13:50;27.00;87.60
11152;DHT22;5630;49.342;10.802;2023-07-13T14:16:21;26.60;87.80
11152;DHT22;5630;49.342;10.802;2023-07-13T14:18:48;26.30;88.00
11152;DHT22;5630;49.342;10.802;2023-07-13T14:21:16;26.30;88.10
11152;DHT22;5630;49.342;10.802;2023-07-13T14:23:43;26.60;88.20
11152;DHT22;5630;49.342;10.802;2023-07-13T14:26:29;26.80;87.20
11152;DHT22;5630;49.342;10.802;2023-07-13T14:28:57;26.80;87.30
11152;DHT22;5630;49.342;10.802;2023-07-13T14:31:26;26.60;87.00
11152;DHT22;5630;49.342;10.802;2023-07-13T14:33:54;26.60;89.10
11152;DHT22;5630;49.342;10.802;2023-07-13T14:36:29;26.70;87.20
11152;DHT22;5630;49.342;10.802;2023-07-13T14:38:57;26.60;86.70
11152;DHT22;5630;49.342;10.802;2023-07-13T14:41:23;26.50;87.50
11152;DHT22;5630;49.342;10.802;2023-07-13T14:43:49;26.70;88.80
11152;DHT22;5630;49.342;10.802;2023-07-13T14:46:29;26.80;89.00
11152;DHT22;5630;49.342;10.802;2023-07-13T14:49:02;26.90;89.20
11152;DHT22;5630;49.342;10.802;2023-07-13T14:51:29;27.00;87.10
11152;DHT22;5630;49.342;10.802;2023-07-13T14:53:55;26.80;89.30
11152;DHT22;5630;49.342;10.802;2023-07-13T14:56:21;26.80;89.60
11152;DHT22;5630;49.342;10.802;2023-07-13T14:58:47;26.70;89.30
11152;DHT22;5630;49.342;10.802;2023-07-13T15:01:15;26.80;85.80
11152;DHT22;5630;49.342;10.802;2023-07-13T15:03:48;26.80;85.00
11152;DHT22;5630;49.342;10.802;2023-07-13T15:06:14;26.90;85.40
11152;DHT22;5630;49.342;10.802;2023-07-13T15:08:40;26.80;86.00
11152;DHT22;5630;49.342;10.802;2023-07-13T15:11:09;26.80;87.30
11152;DHT22;5630;49.342;10.802;2023-07-13T15:13:39;26.80;87.10
11152;DHT22;5630;49.342;10.802;2023-07-13T15:16:13;26.90;87.90
11152;DHT22;5630;49.342;10.802;2023-07-13T15:18:40;26.70;87.80
11152;DHT22;5630;49.342;10.802;2023-07-13T15:21:10;26.60;86.70
11152;DHT22;5630;49.342;10.802;2023-07-13T15:23:39;26.50;87.10
11152;DHT22;5630;49.342;10.802;2023-07-13T15:26:04;26.50;86.10
11152;DHT22;5630;49.342;10.802;2023-07-13T15:28:32;26.40;85.70
11152;DHT22;5630;49.342;10.802;2023-07-13T15:30:57;26.50;86.10
11152;DHT22;5630;49.342;10.802;2023-07-13T15:33:27;26.40;86.60
11152;DHT22;5630;49.342;10.802;2023-07-13T15:35:53;26.40;88.80
11152;DHT22;5630;49.342;10.802;2023-07-13T15:38:22;26.40;87.30
11152;DHT22;5630;49.342;10.802;2023-07-13T15:40:49;26.20;86.30
11152;DHT22;5630;49.342;10.802;2023-07-13T15:43:16;26.00;87.70
11152;DHT22;5630;49.342;10.802;2023-07-13T15:45:43;25.90;88.60
11152;DHT22;5630;49.342;10.802;2023-07-13T15:48:19;26.00;88.30
11152;DHT22;5630;49.342;10.802;2023-07-13T15:50:48;26.00;87.90
11152;DHT22;5630;49.342;10.802;2023-07-13T15:53:26;26.00;88.80
11152;DHT22;5630;49.342;10.802;2023-07-13T15:55:53;25.80;88.40
11152;DHT22;5630;49.342;10.802;2023-07-13T15:58:19;25.80;88.40
11152;DHT22;5630;49.342;10.802;2023-07-13T16:00:45;25.60;89.00
11152;DHT22;5630;49.342;10.802;2023-07-13T16:03:11;25.30;89.40
11152;DHT22;5630;49.342;10.802;2023-07-13T16:05:37;25.20;90.30
11152;DHT22;5630;49.342;10.802;2023-07-13T16:08:05;25.30;90.30
11152;DHT22;5630;49.342;10.802;2023-07-13T16:10:33;25.40;90.50
11152;DHT22;5630;49.342;10.802;2023-07-13T16:13:00;25.40;89.90
11152;DHT22;5630;49.342;10.802;2023-07-13T16:15:26;25.30;90.10